Time;durP1;ratioP1;P1;durP2;ratioP2;P2;SDS_P1;SDS_P2;PMS_P1;PMS_P2;Temp;Humidity;BMP_temperature;BMP_pressure;BME280_temperature;BME280_humidity;BME280_pressure;Samples;Min_cycle;Max_cycle;Signal;HPM_P1;HPM_P2
2022/11/27 00:01:48;;;;;;;85.10;41.70;;;;;;;5.08;100.00;101698.59;5069623;28;20056;-73
2022/11/27 00:04:14;;;;;;;84.18;40.25;;;;;;;5.05;100.00;101697.84;5066996;28;20626;-73
2022/11/27 00:06:39;;;;;;;82.22;41.10;;;;;;;5.01;100.00;101690.94;5054492;28;20451;-73
2022/11/27 00:09:09;;;;;;;77.32;39.67;;;;;;;5.03;100.00;101691.75;5051467;28;20086;-74
2022/11/27 00:11:34;;;;;;;78.95;41.78;;;;;;;5.01;100.00;101680.31;5067573;28;20032;-73
2022/11/27 00:14:00;;;;;;;79.40;40.78;;;;;;;4.96;100.00;101677.84;5068411;28;20039;-73
2022/11/27 00:16:26;;;;;;;85.30;39.92;;;;;;;4.97;100.00;101678.72;5068976;28;20036;-73
2022/11/27 00:18:52;;;;;;;92.57;41.88;;;;;;;4.96;100.00;101687.63;5066289;28;20032;-73
2022/11/27 00:21:23;;;;;;;80.53;41.45;;;;;;;5.01;100.00;101689.16;5068984;28;20031;-72
2022/11/27 00:23:50;;;;;;;88.97;40.28;;;;;;;4.99;100.00;101691.00;5069203;28;20072;-73
2022/11/27 00:26:15;;;;;;;77.93;39.33;;;;;;;4.99;100.00;101693.66;5069377;28;20454;-73
2022/11/27 00:28:41;;;;;;;82.40;43.03;;;;;;;5.01;100.00;101698.91;5062540;28;20041;-73
2022/11/27 00:31:12;;;;;;;89.07;42.15;;;;;;;4.99;100.00;101696.31;5049263;28;20025;-73
2022/11/27 00:33:38;;;;;;;86.35;41.65;;;;;;;5.01;100.00;101701.56;5048727;28;20021;-66
2022/11/27 00:36:05;;;;;;;88.30;42.83;;;;;;;5.00;100.00;101694.53;5048654;28;20027;-66
2022/11/27 00:38:32;;;;;;;93.80;43.80;;;;;;;5.04;100.00;101697.00;5048735;28;20028;-67
2022/11/27 00:40:59;;;;;;;90.18;43.65;;;;;;;5.00;100.00;101686.56;5046737;28;20040;-67
2022/11/27 00:43:24;;;;;;;83.72;41.53;;;;;;;4.95;100.00;101676.13;5048850;28;20025;-66
2022/11/27 00:45:50;;;;;;;86.38;43.17;;;;;;;5.05;100.00;101698.72;5060299;28;20412;-66
2022/11/27 00:48:15;;;;;;;85.65;42.05;;;;;;;5.00;100.00;101687.41;5063597;28;20047;-66
2022/11/27 00:50:41;;;;;;;94.32;45.15;;;;;;;4.96;100.00;101669.03;5052272;28;20041;-66
2022/11/27 00:53:06;;;;;;;84.60;41.70;;;;;;;5.10;100.00;101691.44;5055596;28;20468;-66
2022/11/27 00:55:31;;;;;;;95.25;45.53;;;;;;;5.12;100.00;101700.19;5066578;28;20094;-66
2022/11/27 00:57:57;;;;;;;88.88;44.45;;;;;;;5.07;100.00;101682.72;5059081;28;20048;-66
2022/11/27 01:00:22;;;;;;;85.57;42.63;;;;;;;5.13;100.00;101693.09;5048252;28;20037;-66
2022/11/27 01:02:48;;;;;;;95.60;44.63;;;;;;;5.05;100.00;101685.44;5065242;28;20043;-66
2022/11/27 01:05:13;;;;;;;88.03;43.97;;;;;;;5.14;100.00;101700.13;5060744;28;20094;-66
2022/11/27 01:07:39;;;;;;;84.57;43.40;;;;;;;5.12;100.00;101686.88;5055979;28;20040;-66
2022/11/27 01:10:05;;;;;;;88.13;43.50;;;;;;;5.10;100.00;101691.44;5059103;28;20025;-66
2022/11/27 01:12:30;;;;;;;92.03;45.50;;;;;;;5.09;100.00;101692.34;5062686;28;20032;-65
2022/11/27 01:14:56;;;;;;;91.25;44.05;;;;;;;4.99;100.00;101658.25;5062964;28;20029;-66
2022/11/27 01:17:21;;;;;;;84.55;43.83;;;;;;;5.12;100.00;101686.88;5064738;28;20151;-72
2022/11/27 01:19:47;;;;;;;92.20;44.88;;;;;;;5.16;100.00;101696.44;5069069;28;20419;-73
2022/11/27 01:22:12;;;;;;;92.75;47.30;;;;;;;5.18;100.00;101694.59;5066731;28;20033;-72
2022/11/27 01:24:38;;;;;;;92.20;45.03;;;;;;;5.12;100.00;101686.88;5067673;28;20029;-73
2022/11/27 01:27:03;;;;;;;92.47;46.13;;;;;;;5.14;100.00;101687.69;5068431;28;20074;-72
2022/11/27 01:29:28;;;;;;;90.32;43.88;;;;;;;5.12;100.00;101680.72;5066856;28;20040;-72
2022/11/27 01:31:54;;;;;;;92.57;44.67;;;;;;;5.14;100.00;101692.13;5068115;28;20023;-73
2022/11/27 01:34:20;;;;;;;86.60;43.13;;;;;;;5.20;100.00;101691.88;5068022;28;20043;-73
2022/11/27 01:36:45;;;;;;;83.32;42.28;;;;;;;5.10;100.00;101680.78;5067471;28;20040;-72
2022/11/27 01:39:16;;;;;;;92.72;44.83;;;;;;;5.14;100.00;101682.38;5068360;28;20032;-72
2022/11/27 01:41:42;;;;;;;85.15;42.33;;;;;;;5.14;100.00;101685.03;5066757;28;20090;-72
2022/11/27 01:44:23;;;;;;;85.45;43.67;;;;;;;5.19;100.00;101690.16;5067845;28;20435;-73
2022/11/27 01:46:51;;;;;;;83.38;41.25;;;;;;;5.16;100.00;101683.16;5067000;28;20045;-72
2022/11/27 01:49:29;;;;;;;95.32;45.38;;;;;;;5.18;100.00;101678.66;5067485;28;20040;-73
2022/11/27 01:52:07;;;;;;;84.30;42.55;;;;;;;5.21;100.00;101675.84;5068186;28;20017;-73
2022/11/27 01:54:56;;;;;;;87.72;42.10;;;;;;;5.23;100.00;101679.31;5068285;28;20032;-73
2022/11/27 01:57:31;;;;;;;82.68;43.13;;;;;;;5.27;100.00;101672.94;5047566;28;20061;-73
2022/11/27 01:59:59;;;;;;;85.20;42.08;;;;;;;5.27;100.00;101677.38;5046453;28;20420;-73
2022/11/27 02:02:25;;;;;;;88.68;44.22;;;;;;;5.22;100.00;101666.09;5044575;28;20028;-73
2022/11/27 02:04:51;;;;;;;85.18;42.28;;;;;;;5.21;100.00;101662.56;5046036;28;20025;-73
2022/11/27 02:07:17;;;;;;;95.00;47.45;;;;;;;5.21;100.00;101669.66;5046340;28;20180;-73
2022/11/27 02:09:42;;;;;;;89.22;44.13;;;;;;;5.19;100.00;101668.88;5053644;28;20062;-72
2022/11/27 02:12:45;;;;;;;83.28;42.78;;;;;;;5.21;100.00;101678.50;5065679;28;20100;-73
2022/11/27 02:15:24;;;;;;;82.57;41.42;;;;;;;5.23;100.00;101675.78;5044334;28;20060;-73
2022/11/27 02:18:01;;;;;;;94.70;45.13;;;;;;;5.21;100.00;101675.84;5064571;28;20048;-73
2022/11/27 02:20:35;;;;;;;89.35;43.08;;;;;;;5.18;100.00;101657.38;5066336;28;20031;-72
2022/11/27 02:23:07;;;;;;;;;;;;;;;5.25;100.00;101674.78;5064939;28;20825;-73
2022/11/27 02:25:55;;;;;;;91.30;42.80;;;;;;;5.25;100.00;101671.28;5066330;28;20371;-74
2022/11/27 02:28:36;;;;;;;92.25;42.47;;;;;;;5.25;100.00;101661.47;5065649;28;20064;-73
2022/11/27 02:31:17;;;;;;;94.70;44.55;;;;;;;5.24;100.00;101659.75;5065933;28;20029;-73
2022/11/27 02:33:49;;;;;;;89.70;43.53;;;;;;;5.24;100.00;101662.41;5065597;28;20025;-73
2022/11/27 02:36:21;;;;;;;87.95;42.60;;;;;;;5.26;100.00;101663.22;5055150;28;20222;-73
2022/11/27 02:38:55;;;;;;;87.82;41.65;;;;;;;5.27;100.00;101667.59;5045870;28;20414;-73
2022/11/27 02:41:47;;;;;;;82.97;41.03;;;;;;;5.27;100.00;101664.94;5045202;28;20079;-73
2022/11/27 02:44:13;;;;;;;68.78;37.72;;;;;;;5.25;100.00;101660.63;5038678;28;20108;-73
2022/11/27 02:46:40;;;;;;;74.82;37.53;;;;;;;5.28;100.00;101676.44;5045791;28;20056;-73
2022/11/27 02:49:10;;;;;;;64.47;35.88;;;;;;;5.24;100.00;101673.06;5044268;28;20025;-72
2022/11/27 02:51:44;;;;;;;67.47;37.90;;;;;;;5.30;100.00;101685.22;5046089;28;20029;-72
2022/11/27 02:54:16;;;;;;;62.33;36.40;;;;;;;5.31;100.00;101676.28;5045694;28;20067;-72
2022/11/27 02:56:43;;;;;;;71.80;38.38;;;;;;;5.27;100.00;101677.38;5045843;28;20029;-72
2022/11/27 02:59:12;;;;;;;65.03;35.30;;;;;;;5.24;100.00;101670.41;5054285;28;20035;-73
2022/11/27 03:01:43;;;;;;;61.97;34.80;;;;;;;5.32;100.00;101678.88;5065811;28;20052;-72
2022/11/27 03:04:15;;;;;;;64.72;36.25;;;;;;;5.30;100.00;101682.56;5067417;28;20416;-72
2022/11/27 03:06:48;;;;;;;67.10;37.08;;;;;;;5.31;100.00;101689.59;5066282;28;20617;-73
2022/11/27 03:09:23;;;;;;;71.43;37.67;;;;;;;5.30;100.00;101685.22;5066871;28;20503;-73
2022/11/27 03:11:49;;;;;;;65.65;35.65;;;;;;;5.32;100.00;101696.66;5065049;28;20675;-73
2022/11/27 03:14:16;;;;;;;65.43;35.70;;;;;;;5.26;100.00;101675.66;5066308;28;20408;-73
2022/11/27 03:17:15;;;;;;;60.53;34.28;;;;;;;5.32;100.00;101689.53;5065949;28;20131;-73
2022/11/27 03:20:01;;;;;;;68.65;36.83;;;;;;;5.34;100.00;101684.13;5065898;28;20035;-73
2022/11/27 03:22:27;;;;;;;69.30;37.13;;;;;;;5.30;100.00;101682.56;5059327;28;20507;-66
2022/11/27 03:24:52;;;;;;;67.00;35.58;;;;;;;5.32;100.00;101688.69;5044793;28;20037;-67
2022/11/27 03:27:26;;;;;;;66.68;36.17;;;;;;;5.32;100.00;101689.53;5044632;28;20032;-67
2022/11/27 03:29:55;;;;;;;71.07;38.67;;;;;;;5.24;100.00;101686.34;5052616;28;20036;-67
2022/11/27 03:32:21;;;;;;;65.32;36.20;;;;;;;5.25;100.00;101682.75;5064190;28;20162;-66
2022/11/27 03:34:48;;;;;;;74.00;38.72;;;;;;;5.12;100.00;101654.13;5045834;28;20499;-67
2022/11/27 03:37:14;;;;;;;69.72;37.08;;;;;;;5.17;100.00;101660.09;5045589;28;20108;-67
2022/11/27 03:39:39;;;;;;;69.28;37.47;;;;;;;5.20;100.00;101663.50;5045435;28;20370;-67
2022/11/27 03:42:29;;;;;;;72.68;38.80;;;;;;;5.33;100.00;101677.09;5044887;28;20072;-67
2022/11/27 03:45:07;;;;;;;72.30;39.78;;;;;;;5.35;100.00;101684.06;5045353;28;20040;-67
2022/11/27 03:47:38;;;;;;;69.45;36.17;;;;;;;5.29;100.00;101687.00;5045094;28;20049;-67
2022/11/27 03:50:10;;;;;;;71.43;36.47;;;;;;;5.30;100.00;101693.19;5044811;28;20345;-66
2022/11/27 03:52:50;;;;;;;71.68;38.83;;;;;;;5.28;100.00;101690.59;5062205;28;20444;-67
2022/11/27 03:55:31;;;;;;;71.05;38.55;;;;;;;5.19;100.00;101675.03;5068947;28;20569;-67
2022/11/27 03:58:05;;;;;;;71.10;38.25;;;;;;;5.27;100.00;101691.53;5068730;28;20029;-67
2022/11/27 04:00:34;;;;;;;77.50;40.83;;;;;;;5.21;100.00;101675.84;5067198;28;20186;-67
2022/11/27 04:03:01;;;;;;;74.35;39.38;;;;;;;5.23;100.00;101676.66;5066079;28;20024;-67
2022/11/27 04:05:27;;;;;;;72.40;39.05;;;;;;;5.27;100.00;101683.56;5067476;28;20040;-67
2022/11/27 04:07:52;;;;;;;72.68;39.03;;;;;;;5.23;100.00;101676.66;5066492;28;20036;-67
2022/11/27 04:10:18;;;;;;;80.22;40.97;;;;;;;5.25;100.00;101676.59;5048848;28;20067;-67
2022/11/27 04:12:43;;;;;;;69.85;37.35;;;;;;;5.34;100.00;101678.81;5048956;28;20020;-67
2022/11/27 04:15:09;;;;;;;73.72;39.28;;;;;;;5.20;100.00;101663.50;5048907;28;20481;-67
2022/11/27 04:17:35;;;;;;;74.97;39.78;;;;;;;5.31;100.00;101679.84;5049314;28;20060;-67
2022/11/27 04:20:00;;;;;;;74.82;38.42;;;;;;;5.28;100.00;101671.97;5049081;28;20059;-66
2022/11/27 04:22:26;;;;;;;71.20;36.95;;;;;;;5.27;100.00;101672.06;5047215;28;20044;-67
2022/11/27 04:24:51;;;;;;;69.47;38.22;;;;;;;5.35;100.00;101686.72;5049592;28;20036;-67
2022/11/27 04:27:17;;;;;;;69.68;37.05;;;;;;;5.38;100.00;101686.59;5068776;28;20032;-67
2022/11/27 04:29:43;;;;;;;68.75;38.08;;;;;;;5.38;100.00;101691.91;5069080;28;20028;-67
2022/11/27 04:32:08;;;;;;;69.43;38.25;;;;;;;5.35;100.00;101680.56;5067282;28;20081;-67
2022/11/27 04:34:34;;;;;;;75.93;38.58;;;;;;;5.34;100.00;101678.81;5068951;28;20024;-67
2022/11/27 04:36:59;;;;;;;72.57;39.88;;;;;;;5.29;100.00;101676.38;5067552;28;20024;-67
2022/11/27 04:39:25;;;;;;;69.15;37.20;;;;;;;5.36;100.00;101692.94;5068427;28;20036;-67
2022/11/27 04:41:51;;;;;;;69.90;38.63;;;;;;;5.29;100.00;101676.38;5068528;28;20032;-66
2022/11/27 04:44:16;;;;;;;70.63;38.83;;;;;;;5.20;100.00;101674.13;5067536;28;20024;-67
2022/11/27 04:46:42;;;;;;;69.68;39.65;;;;;;;5.20;100.00;101663.50;5067080;28;20056;-67
2022/11/27 04:49:09;;;;;;;70.32;37.97;;;;;;;5.22;100.00;101663.44;5068275;28;20107;-67
2022/11/27 04:51:34;;;;;;;70.50;39.00;;;;;;;5.29;100.00;101664.88;5068327;28;20057;-67
2022/11/27 04:54:00;;;;;;;70.63;37.78;;;;;;;5.36;100.00;101675.19;5068321;28;20040;-66
2022/11/27 04:56:25;;;;;;;66.93;36.22;;;;;;;5.28;100.00;101671.97;5066780;28;20035;-66
2022/11/27 04:58:51;;;;;;;68.65;37.40;;;;;;;5.30;100.00;101667.47;5067302;28;20025;-67
2022/11/27 05:01:16;;;;;;;66.72;37.03;;;;;;;5.39;100.00;101675.06;5068209;28;20040;-67
2022/11/27 05:03:42;;;;;;;65.97;36.67;;;;;;;5.13;100.00;101638.13;5066022;28;20070;-66
2022/11/27 05:06:07;;;;;;;79.00;37.45;;;;;;;5.32;100.00;101676.22;5065479;28;20035;-67
2022/11/27 05:08:33;;;;;;;75.00;38.17;;;;;;;5.29;100.00;101668.38;5067287;28;20025;-65
2022/11/27 05:11:03;;;;;;;76.20;38.25;;;;;;;5.37;100.00;101674.25;5067004;28;20535;-66
2022/11/27 05:13:29;;;;;;;77.32;39.30;;;;;;;5.38;100.00;101673.31;5066738;28;20056;-66
2022/11/27 05:15:55;;;;;;;74.47;39.00;;;;;;;5.27;100.00;101656.97;5067181;28;20560;-67
2022/11/27 05:18:21;;;;;;;78.18;39.53;;;;;;;5.37;100.00;101663.59;5066810;28;20467;-67
2022/11/27 05:20:46;;;;;;;76.72;38.80;;;;;;;5.28;100.00;101655.16;5067269;28;20060;-66
2022/11/27 05:23:11;;;;;;;79.90;38.78;;;;;;;5.36;100.00;101666.31;5066836;28;20033;-66
2022/11/27 05:25:37;;;;;;;74.65;37.80;;;;;;;5.42;100.00;101674.88;5067241;28;20029;-74
2022/11/27 05:28:04;;;;;;;74.45;39.67;;;;;;;5.33;100.00;101653.16;5067667;28;20032;-74
2022/11/27 05:30:29;;;;;;;80.47;41.50;;;;;;;5.44;100.00;101675.69;5068248;28;20040;-74
2022/11/27 05:32:55;;;;;;;74.20;40.33;;;;;;;5.42;100.00;101671.38;5069518;28;20066;-74
2022/11/27 05:35:20;;;;;;;74.90;39.47;;;;;;;5.45;100.00;101676.56;5069916;28;20024;-74
2022/11/27 05:37:46;;;;;;;77.88;39.63;;;;;;;5.45;100.00;101666.75;5070626;28;20020;-74
2022/11/27 05:40:11;;;;;;;69.45;39.75;;;;;;;5.49;100.00;101672.81;5069161;28;20500;-74
2022/11/27 05:42:37;;;;;;;72.18;37.72;;;;;;;5.48;100.00;101669.28;5068968;28;20026;-74
2022/11/27 05:45:03;;;;;;;73.07;38.13;;;;;;;5.51;100.00;101671.81;5071855;28;20017;-74
2022/11/27 05:47:28;;;;;;;74.90;39.85;;;;;;;5.51;100.00;101671.81;5066372;28;20167;-74
2022/11/27 05:49:53;;;;;;;70.03;38.08;;;;;;;5.52;100.00;101673.56;5068207;28;20076;-74
2022/11/27 05:52:19;;;;;;;73.43;38.63;;;;;;;5.52;100.00;101681.53;5072158;28;20036;-74
2022/11/27 05:54:47;;;;;;;74.25;39.50;;;;;;;5.54;100.00;101681.44;5071231;28;20115;-74
2022/11/27 05:57:13;;;;;;;81.28;40.55;;;;;;;5.56;100.00;101691.09;5059190;28;20037;-74
2022/11/27 05:59:38;;;;;;;76.72;39.67;;;;;;;5.52;100.00;101678.88;5051763;28;20066;-74
2022/11/27 06:02:03;;;;;;;79.38;40.45;;;;;;;5.53;100.00;101683.25;5055773;28;20484;-73
2022/11/27 06:04:34;;;;;;;84.00;41.95;;;;;;;5.48;100.00;101677.28;5056704;28;20038;-74
2022/11/27 06:07:00;;;;;;;85.47;40.58;;;;;;;5.54;100.00;101690.31;5054586;28;20712;-74
2022/11/27 06:09:25;;;;;;;74.60;40.63;;;;;;;5.56;100.00;101685.78;5060196;28;20036;-74
2022/11/27 06:11:51;;;;;;;77.45;39.00;;;;;;;5.56;100.00;101691.09;5050237;28;20036;-74
2022/11/27 06:14:16;;;;;;;85.75;41.13;;;;;;;5.54;100.00;101692.97;5055479;28;20028;-74
2022/11/27 06:16:41;;;;;;;73.95;38.70;;;;;;;5.53;100.00;101695.69;5055186;28;20105;-74
2022/11/27 06:19:07;;;;;;;85.78;42.75;;;;;;;5.54;100.00;101694.75;5056283;28;20035;-74
2022/11/27 06:21:33;;;;;;;80.00;39.65;;;;;;;5.53;100.00;101693.91;5056682;28;20023;-74
2022/11/27 06:23:58;;;;;;;83.40;41.22;;;;;;;5.51;100.00;101679.78;5054425;28;20024;-67
2022/11/27 06:26:26;;;;;;;74.30;39.47;;;;;;;5.57;100.00;101692.81;5050567;28;20503;-74
2022/11/27 06:28:53;;;;;;;71.05;37.80;;;;;;;5.56;100.00;101690.22;5055263;28;20021;-75
2022/11/27 06:31:22;;;;;;;73.50;40.53;;;;;;;5.58;100.00;101685.72;5067479;28;20029;-74
2022/11/27 06:33:49;;;;;;;70.70;40.65;;;;;;;5.61;100.00;101694.41;5069347;28;20028;-73
2022/11/27 06:36:15;;;;;;;71.38;40.20;;;;;;;5.59;100.00;101685.66;5065567;28;20041;-74
2022/11/27 06:38:41;;;;;;;68.60;39.15;;;;;;;5.64;100.00;101696.09;5051164;28;20029;-66
2022/11/27 06:41:26;;;;;;;73.75;39.65;;;;;;;5.64;100.00;101694.25;5064468;28;20059;-74
2022/11/27 06:43:53;;;;;;;71.93;39.50;;;;;;;5.65;100.00;101689.81;5058623;28;20031;-74
2022/11/27 06:46:21;;;;;;;70.68;38.65;;;;;;;5.66;100.00;101699.53;5062111;28;20496;-74
2022/11/27 06:48:48;;;;;;;66.47;38.03;;;;;;;5.59;100.00;101690.97;5053287;28;20708;-74
2022/11/27 06:51:17;;;;;;;72.95;37.70;;;;;;;5.58;100.00;101699.88;5045200;28;20045;-74
2022/11/27 06:53:43;;;;;;;69.50;39.58;;;;;;;5.68;100.00;101706.50;5050921;28;20032;-73
2022/11/27 06:56:13;;;;;;;72.47;39.33;;;;;;;5.65;100.00;101698.69;5045651;28;20195;-74
2022/11/27 06:58:39;;;;;;;71.20;39.15;;;;;;;5.66;100.00;101707.50;5046328;28;20198;-74
2022/11/27 07:01:15;;;;;;;75.05;39.05;;;;;;;5.64;100.00;101707.56;5056735;28;20033;-68
2022/11/27 07:03:41;;;;;;;81.43;41.60;;;;;;;5.65;100.00;101700.47;5044199;28;20116;-66
2022/11/27 07:06:14;;;;;;;78.15;41.80;;;;;;;5.59;100.00;101690.09;5064511;28;20044;-66
2022/11/27 07:08:40;;;;;;;87.53;44.38;;;;;;;5.67;100.00;101690.63;5064491;28;20032;-67
2022/11/27 07:11:13;;;;;;;88.43;45.17;;;;;;;5.70;100.00;101699.31;5063747;28;20477;-66
2022/11/27 07:13:38;;;;;;;86.32;45.83;;;;;;;5.68;100.00;101703.84;5062368;28;20547;-66
2022/11/27 07:16:07;;;;;;;86.38;45.70;;;;;;;5.53;100.00;101674.41;5065526;28;20064;-66
2022/11/27 07:18:40;;;;;;;91.75;47.17;;;;;;;5.70;100.00;101695.78;5062677;28;20089;-66
2022/11/27 07:21:07;;;;;;;90.50;47.73;;;;;;;5.59;100.00;101679.44;5062474;28;20070;-65
2022/11/27 07:23:32;;;;;;;83.32;44.30;;;;;;;5.65;100.00;101685.38;5064585;28;20044;-67
2022/11/27 07:25:58;;;;;;;99.32;47.20;;;;;;;5.60;100.00;101676.72;5064665;28;20032;-66
2022/11/27 07:28:24;;;;;;;92.05;46.67;;;;;;;5.66;100.00;101678.22;5068209;28;20075;-65
2022/11/27 07:30:57;;;;;;;112.30;58.88;;;;;;;5.66;100.00;101687.09;5060672;28;20033;-66
2022/11/27 07:33:23;;;;;;;85.35;45.15;;;;;;;5.71;100.00;101695.72;5047852;28;20060;-66
2022/11/27 07:35:49;;;;;;;78.50;40.90;;;;;;;5.72;100.00;101696.59;5048858;28;20746;-66
2022/11/27 07:38:14;;;;;;;86.65;42.88;;;;;;;5.64;100.00;101688.94;5068198;28;20041;-66
2022/11/27 07:40:40;;;;;;;80.57;40.15;;;;;;;5.71;100.00;101701.03;5067358;28;20170;-67
2022/11/27 07:43:05;;;;;;;87.90;42.53;;;;;;;5.70;100.00;101686.00;5067824;28;20028;-67
2022/11/27 07:45:31;;;;;;;107.55;50.35;;;;;;;5.74;100.00;101687.59;5054607;28;20044;-67
2022/11/27 07:47:56;;;;;;;104.50;48.75;;;;;;;5.73;100.00;101685.00;5062747;28;20048;-67
2022/11/27 07:50:22;;;;;;;81.85;41.83;;;;;;;5.79;100.00;101687.38;5058597;28;20028;-67
2022/11/27 07:52:47;;;;;;;88.13;40.50;;;;;;;5.70;100.00;101671.81;5057130;28;20043;-68
2022/11/27 07:55:13;;;;;;;87.40;41.22;;;;;;;5.77;100.00;101681.28;5046511;28;20152;-67
2022/11/27 07:57:38;;;;;;;87.53;39.83;;;;;;;5.83;100.00;101689.84;5046627;28;20059;-65
2022/11/27 08:00:05;;;;;;;81.80;40.70;;;;;;;5.84;100.00;101690.72;5061021;28;20024;-65
2022/11/27 08:02:30;;;;;;;79.68;38.85;;;;;;;5.81;100.00;101680.19;5068464;28;20036;-66
2022/11/27 08:04:56;;;;;;;87.30;42.08;;;;;;;5.76;100.00;101669.75;5068423;28;20024;-66
2022/11/27 08:07:28;;;;;;;83.70;40.45;;;;;;;5.81;100.00;101675.75;5067838;28;20021;-66
2022/11/27 08:09:54;;;;;;;85.88;42.42;;;;;;;5.73;100.00;101661.91;5068624;28;20515;-66
2022/11/27 08:12:21;;;;;;;83.22;41.47;;;;;;;5.86;100.00;101684.41;5069421;28;20103;-66
2022/11/27 08:14:47;;;;;;;93.70;44.25;;;;;;;5.82;100.00;101689.94;5069279;28;20111;-66
2022/11/27 08:17:12;;;;;;;88.43;41.28;;;;;;;5.89;100.00;101686.91;5068366;28;20531;-66
2022/11/27 08:19:38;;;;;;;86.60;40.97;;;;;;;5.90;100.00;101693.97;5067509;28;20107;-66
2022/11/27 08:22:03;;;;;;;91.28;43.92;;;;;;;5.92;100.00;101702.75;5064346;28;20385;-67
2022/11/27 08:24:29;;;;;;;83.13;39.70;;;;;;;5.90;100.00;101695.78;5058675;28;20035;-67
2022/11/27 08:26:54;;;;;;;81.93;39.92;;;;;;;5.89;100.00;101705.56;5051189;28;20037;-67
2022/11/27 08:29:19;;;;;;;86.78;40.78;;;;;;;5.82;100.00;101688.16;5051451;28;20079;-66
2022/11/27 08:31:45;;;;;;;83.35;39.10;;;;;;;5.70;100.00;101674.47;5062215;28;20054;-67
2022/11/27 08:34:11;;;;;;;87.90;42.95;;;;;;;5.81;100.00;101691.72;5046766;28;20023;-67
2022/11/27 08:36:36;;;;;;;82.65;39.88;;;;;;;5.89;100.00;101705.56;5061234;28;20039;-66
2022/11/27 08:39:01;;;;;;;82.72;41.53;;;;;;;5.80;100.00;101683.81;5051151;28;20036;-66
2022/11/27 08:41:27;;;;;;;92.00;43.95;;;;;;;5.86;100.00;101705.69;5063126;28;20021;-66
2022/11/27 08:43:52;;;;;;;87.03;42.35;;;;;;;5.93;100.00;101712.47;5069112;28;20037;-72
2022/11/27 08:46:18;;;;;;;82.45;40.83;;;;;;;5.98;100.00;101721.13;5057920;28;20071;-72
2022/11/27 08:48:43;;;;;;;89.28;39.53;;;;;;;5.95;100.00;101715.91;5063294;28;20110;-73
2022/11/27 08:51:11;;;;;;;79.03;40.08;;;;;;;6.06;100.00;101728.75;5069934;28;20028;-72
2022/11/27 08:53:37;;;;;;;79.47;38.95;;;;;;;6.05;100.00;101727.88;5068642;28;20091;-72
2022/11/27 08:56:06;;;;;;;85.15;41.63;;;;;;;6.09;100.00;101728.56;5070287;28;20108;-72
2022/11/27 08:58:31;;;;;;;83.40;39.88;;;;;;;6.08;100.00;101724.19;5070454;28;20028;-72
2022/11/27 09:00:57;;;;;;;90.55;43.15;;;;;;;6.10;100.00;101723.19;5066793;28;20054;-73
2022/11/27 09:03:22;;;;;;;89.60;44.47;;;;;;;6.13;100.00;101724.84;5051512;28;20012;-73
2022/11/27 09:05:48;;;;;;;98.00;45.58;;;;;;;6.08;100.00;101710.88;5062985;28;20104;-73
2022/11/27 09:08:18;;;;;;;83.22;41.38;;;;;;;6.11;100.00;101718.72;5049145;28;20037;-72
2022/11/27 09:10:44;;;;;;;88.60;44.13;;;;;;;6.09;100.00;101712.59;5065858;28;20010;-73
2022/11/27 09:13:10;;;;;;;96.57;45.47;;;;;;;6.16;100.00;101724.72;5073315;28;20062;-74
2022/11/27 09:15:35;;;;;;;97.13;45.08;;;;;;;6.20;100.00;101728.94;5085544;28;20028;-73
2022/11/27 09:18:01;;;;;;;104.30;50.22;;;;;;;6.13;100.00;101725.69;5077650;28;20033;-73
2022/11/27 09:20:26;;;;;;;95.68;46.83;;;;;;;6.18;100.00;101722.81;5074441;28;20107;-73
2022/11/27 09:22:51;;;;;;;92.60;44.00;;;;;;;6.18;100.00;101722.81;5069117;28;20024;-73
2022/11/27 09:25:17;;;;;;;86.03;41.80;;;;;;;6.21;100.00;101717.34;5051997;28;20027;-73
2022/11/27 09:27:42;;;;;;;94.95;44.05;;;;;;;6.13;100.00;101707.06;5069362;28;20036;-73
2022/11/27 09:30:08;;;;;;;91.38;43.55;;;;;;;6.23;100.00;101726.16;5061220;28;20016;-73
2022/11/27 09:32:34;;;;;;;95.60;44.05;;;;;;;6.24;100.00;101722.53;5068376;28;20108;-73
2022/11/27 09:34:59;;;;;;;101.18;45.50;;;;;;;6.27;100.00;101727.72;5067390;28;20437;-73
2022/11/27 09:37:25;;;;;;;101.88;46.05;;;;;;;6.26;100.00;101724.19;5063810;28;20224;-74
2022/11/27 09:39:50;;;;;;;100.38;46.78;;;;;;;6.25;100.00;101719.78;5058005;28;20042;-73
2022/11/27 09:42:49;;;;;;;91.40;45.33;;;;;;;6.26;100.00;101716.19;5066858;28;20025;-73
2022/11/27 09:45:16;;;;;;;101.72;45.75;;;;;;;6.31;100.00;101719.50;5067208;28;20120;-73
2022/11/27 09:47:53;;;;;;;83.82;42.40;;;;;;;6.27;100.00;101717.06;5064209;28;20135;-74
2022/11/27 09:50:25;;;;;;;89.82;43.60;;;;;;;6.27;100.00;101719.72;5058924;28;20077;-74
2022/11/27 09:53:00;;;;;;;94.13;45.60;;;;;;;6.31;100.00;101719.50;5068313;28;20527;-74
2022/11/27 09:55:45;;;;;;;96.30;44.22;;;;;;;6.32;100.00;101715.06;5066104;28;20071;-73
2022/11/27 09:58:17;;;;;;;94.45;45.50;;;;;;;6.32;100.00;101705.25;5050621;28;20396;-73
2022/11/27 10:00:46;;;;;;;97.38;46.83;;;;;;;6.34;100.00;101706.03;5070454;28;20682;-73
2022/11/27 10:03:19;;;;;;;94.15;44.38;;;;;;;6.38;100.00;101698.75;5051704;28;20051;-73
2022/11/27 10:06:20;;;;;;;99.90;45.03;;;;;;;6.37;100.00;101702.34;5064648;28;20392;-73
2022/11/27 10:09:11;;;;;;;100.13;47.67;;;;;;;6.42;100.00;101695.00;5068769;28;20127;-72
2022/11/27 10:11:56;;;;;;;97.72;45.35;;;;;;;6.48;100.00;101700.06;5064363;28;20050;-72
2022/11/27 10:14:37;;;;;;;102.18;48.28;;;;;;;6.40;100.00;101691.56;5047499;28;20028;-74
2022/11/27 10:17:21;;;;;;;97.05;45.97;;;;;;;6.50;100.00;101688.38;5065910;28;20036;-73
2022/11/27 10:20:02;;;;;;;97.82;46.47;;;;;;;6.47;100.00;101688.50;5064367;28;20029;-73
2022/11/27 10:23:04;;;;;;;102.63;49.13;;;;;;;6.47;100.00;101692.97;5068046;28;20472;-72
2022/11/27 10:25:35;;;;;;;95.22;45.20;;;;;;;6.45;100.00;101693.03;5052606;28;20032;-72
2022/11/27 10:28:29;;;;;;;96.10;46.78;;;;;;;6.44;100.00;101679.78;5061453;28;20031;-74
2022/11/27 10:30:59;;;;;;;98.03;46.60;;;;;;;6.40;100.00;101676.44;5069559;28;20138;-74
2022/11/27 10:33:33;;;;;;;98.85;46.25;;;;;;;6.49;100.00;101685.78;5052954;28;20035;-73
2022/11/27 10:36:00;;;;;;;100.70;46.72;;;;;;;6.46;100.00;101673.47;5061106;28;20032;-73
2022/11/27 10:38:31;;;;;;;93.85;45.55;;;;;;;6.41;100.00;101662.16;5053328;28;20028;-73
2022/11/27 10:41:38;;;;;;;95.22;45.22;;;;;;;6.50;100.00;101676.84;5069641;28;20025;-74
2022/11/27 10:44:31;;;;;;;96.13;45.25;;;;;;;6.51;100.00;101671.44;5069257;28;20041;-73
2022/11/27 10:47:04;;;;;;;95.03;45.22;;;;;;;6.51;100.00;101668.75;5056780;28;20070;-71
2022/11/27 10:49:30;;;;;;;94.25;45.38;;;;;;;6.55;100.00;101674.81;5054585;28;20443;-72
2022/11/27 10:51:55;;;;;;;93.88;46.25;;;;;;;6.48;100.00;101665.41;5062871;28;20025;-74
2022/11/27 10:54:26;;;;;;;95.20;46.72;;;;;;;6.55;100.00;101667.66;5061572;28;20059;-73
2022/11/27 10:57:07;;;;;;;89.40;43.38;;;;;;;6.51;100.00;101662.56;5053591;28;20021;-73
2022/11/27 10:59:38;;;;;;;103.63;48.95;;;;;;;6.53;100.00;101672.22;5053754;28;20071;-73
2022/11/27 11:02:06;;;;;;;96.80;46.97;;;;;;;6.52;100.00;101670.47;5064256;28;20163;-73
2022/11/27 11:04:32;;;;;;;105.72;50.03;;;;;;;6.52;100.00;101667.81;5066555;28;20035;-75
2022/11/27 11:06:57;;;;;;;94.95;46.10;;;;;;;6.52;100.00;101672.31;5072717;28;20048;-72
2022/11/27 11:09:31;;;;;;;98.70;47.40;;;;;;;6.54;100.00;101675.72;5072742;28;20024;-74
2022/11/27 11:12:19;;;;;;;105.70;49.55;;;;;;;6.54;100.00;101681.06;5072800;28;20044;-72
2022/11/27 11:14:55;;;;;;;102.55;46.42;;;;;;;6.55;100.00;101678.31;5057902;28;20029;-72
2022/11/27 11:17:36;;;;;;;106.30;48.58;;;;;;;6.48;100.00;101666.25;5070297;28;20021;-74
2022/11/27 11:20:20;;;;;;;99.68;45.70;;;;;;;6.55;100.00;101675.66;5069836;28;20115;-74